Time;durP1;ratioP1;P1;durP2;ratioP2;P2;SDS_P1;SDS_P2;PMS_P1;PMS_P2;Temp;Humidity;BMP_temperature;BMP_pressure;BME280_temperature;BME280_humidity;BME280_pressure;Samples;Min_cycle;Max_cycle;Signal;HPM_P1;HPM_P2
2023/06/29 00:01:02;;;;;;;;;60.25;48.50;;;;;25.16;50.79;100769.78;5055340;28;45250;-69
2023/06/29 00:03:27;;;;;;;;;62.00;50.25;;;;;25.19;50.62;100774.03;5054099;28;46168;-69
2023/06/29 00:05:55;;;;;;;;;65.50;53.50;;;;;25.19;51.01;100772.19;5055381;28;45417;-70
2023/06/29 00:08:22;;;;;;;;;56.25;46.00;;;;;25.04;50.65;100731.53;5057884;28;45427;-68
2023/06/29 00:10:48;;;;;;;;;62.00;50.75;;;;;25.26;51.01;100771.56;5058293;28;45547;-68
2023/06/29 00:13:13;;;;;;;;;58.50;45.75;;;;;25.27;50.54;100767.88;5059265;28;46184;-70
2023/06/29 00:15:38;;;;;;;;;60.00;48.75;;;;;25.24;50.56;100769.88;5061070;28;45439;-73
2023/06/29 00:18:04;;;;;;;;;31.25;28.25;;;;;25.23;51.46;100759.28;5058036;28;45906;-68
2023/06/29 00:20:29;;;;;;;;;59.75;49.00;;;;;25.27;51.47;100762.50;5059038;28;45469;-68
2023/06/29 00:22:55;;;;;;;;;59.25;48.25;;;;;25.23;51.34;100757.41;5057491;28;46531;-73
2023/06/29 00:25:34;;;;;;;;;59.75;48.75;;;;;25.28;51.30;100762.34;5041613;28;45222;-69
2023/06/29 00:27:59;;;;;;;;;64.00;52.25;;;;;25.20;51.80;100744.25;5057697;28;45484;-68
2023/06/29 00:30:25;;;;;;;;;62.50;50.75;;;;;25.22;51.68;100736.88;5059689;28;45332;-69
2023/06/29 00:32:50;;;;;;;;;71.00;59.67;;;;;25.24;51.75;100753.72;5058808;28;45395;-71
2023/06/29 00:35:16;;;;;;;;;71.00;56.33;;;;;25.24;51.54;100747.50;5059017;28;45397;-68
2023/06/29 00:37:44;;;;;;;;;73.33;63.00;;;;;25.17;51.70;100738.38;5057875;28;45423;-68
2023/06/29 00:40:10;;;;;;;;;69.00;58.67;;;;;25.16;51.58;100733.97;5058792;28;45229;-70
2023/06/29 00:42:36;;;;;;;;;72.00;64.33;;;;;25.20;52.07;100738.88;5057994;28;45781;-70
2023/06/29 00:45:03;;;;;;;;;70.67;60.00;;;;;25.19;52.46;100739.88;5038040;28;45288;-68
2023/06/29 00:47:29;;;;;;;;;72.00;62.00;;;;;25.18;52.39;100734.66;5053138;28;45539;-70
2023/06/29 00:49:55;;;;;;;;;70.33;60.67;;;;;25.16;52.22;100728.59;5058196;28;45430;-71
2023/06/29 00:52:22;;;;;;;;;60.25;49.25;;;;;25.06;52.31;100712.50;5058572;28;47081;-70
2023/06/29 00:54:48;;;;;;;;;61.25;49.75;;;;;25.07;52.18;100722.28;5057004;28;46437;-69
2023/06/29 00:57:13;;;;;;;;;65.75;53.75;;;;;25.04;52.69;100723.44;5057339;28;45390;-70
2023/06/29 00:59:39;;;;;;;;;55.00;46.00;;;;;25.04;52.28;100725.28;5057825;28;45247;-71
2023/06/29 01:02:05;;;;;;;;;66.00;54.50;;;;;25.07;52.63;100719.59;5058105;28;46038;-70
2023/06/29 01:04:33;;;;;;;;;62.75;50.50;;;;;25.06;52.32;100713.38;5038309;28;45390;-73
2023/06/29 01:07:10;;;;;;;;;55.75;46.50;;;;;25.08;52.62;100716.75;5039132;28;45494;-69
2023/06/29 01:09:36;;;;;;;;;55.50;45.50;;;;;25.07;52.31;100698.06;5057791;28;45323;-70
2023/06/29 01:12:03;;;;;;;;;61.50;49.75;;;;;25.08;52.89;100708.69;5057981;28;45463;-71
2023/06/29 01:14:32;;;;;;;;;62.00;50.50;;;;;25.08;52.18;100706.00;5058302;28;45302;-69
2023/06/29 01:16:58;;;;;;;;;58.25;48.00;;;;;25.07;52.38;100711.50;5057273;28;45291;-68
2023/06/29 01:19:29;;;;;;;;;55.75;46.00;;;;;25.11;52.00;100704.00;5040403;28;45565;-70
2023/06/29 01:22:02;;;;;;;;;59.50;49.00;;;;;25.09;52.54;100707.69;5057903;28;46600;-71
2023/06/29 01:24:39;;;;;;;;;61.00;50.00;;;;;25.07;52.25;100701.59;5058240;28;45346;-70
2023/06/29 01:27:07;;;;;;;;;79.33;73.33;;;;;25.11;51.98;100704.81;5038983;28;45176;-69
2023/06/29 01:29:32;;;;;;;;;119.50;107.00;;;;;25.07;52.18;100700.75;5057992;28;45469;-69
2023/06/29 01:32:03;;;;;;;;;98.00;95.00;;;;;25.02;52.06;100693.16;5057056;28;46111;-68
2023/06/29 01:34:31;;;;;;;;;94.25;89.25;;;;;25.02;51.74;100697.69;5039929;28;45268;-69
2023/06/29 01:37:05;;;;;;;;;85.00;84.00;;;;;25.00;51.77;100696.97;5058348;28;45288;-70
2023/06/29 01:39:56;;;;;;;;;86.67;80.67;;;;;25.05;51.87;100692.84;5060103;28;45382;-67
2023/06/29 01:42:24;;;;;;;;;68.00;57.33;;;;;25.10;51.98;100700.44;5038470;28;46164;-70
2023/06/29 01:44:50;;;;;;;;;61.75;49.75;;;;;25.05;51.87;100691.97;5058610;28;45385;-69
2023/06/29 01:47:17;;;;;;;;;59.00;48.25;;;;;25.02;52.16;100698.53;5059021;28;45444;-69
2023/06/29 01:49:43;;;;;;;;;57.50;46.75;;;;;25.01;52.00;100686.09;5040664;28;45535;-68
2023/06/29 01:52:09;;;;;;;;;60.00;49.25;;;;;24.91;52.45;100679.91;5058173;28;45398;-68
2023/06/29 01:54:35;;;;;;;;;56.00;45.75;;;;;25.03;52.63;100699.38;5057701;28;45453;-73
2023/06/29 01:57:00;;;;;;;;;57.50;48.00;;;;;24.99;52.20;100697.97;5058616;28;45369;-70
2023/06/29 01:59:26;;;;;;;;;53.00;44.50;;;;;25.02;51.81;100697.69;5061508;28;45437;-69
2023/06/29 02:01:52;;;;;;;;;54.50;44.75;;;;;24.96;52.04;100685.69;5060974;28;45400;-70
2023/06/29 02:04:17;;;;;;;;;53.50;44.25;;;;;24.99;52.27;100687.22;5060762;28;45356;-70
2023/06/29 02:06:42;;;;;;;;;52.00;43.50;;;;;24.96;51.98;100682.16;5058241;28;45295;-69
2023/06/29 02:09:08;;;;;;;;;49.25;42.25;;;;;24.98;52.16;100685.53;5058096;28;45509;-68
2023/06/29 02:11:33;;;;;;;;;53.50;45.25;;;;;24.96;52.40;100684.84;5057007;28;50322;-69
2023/06/29 02:13:59;;;;;;;;;51.50;43.00;;;;;24.80;52.04;100671.06;5057109;28;45263;-69
2023/06/29 02:16:24;;;;;;;;;51.25;41.75;;;;;24.79;52.58;100661.31;5056017;28;45529;-70
2023/06/29 02:18:49;;;;;;;;;53.75;44.50;;;;;24.81;52.71;100674.63;5056794;28;45385;-68
2023/06/29 02:21:15;;;;;;;;;57.00;46.00;;;;;24.79;52.74;100676.59;5058789;28;46076;-71
2023/06/29 02:23:40;;;;;;;;;56.25;45.50;;;;;24.75;52.45;100664.47;5064283;28;45578;-70
2023/06/29 02:26:06;;;;;;;;;60.75;49.75;;;;;24.81;52.92;100677.31;5077731;28;45783;-69
2023/06/29 02:28:31;;;;;;;;;60.50;48.75;;;;;24.76;52.78;100674.22;5056661;28;45598;-68
2023/06/29 02:30:56;;;;;;;;;65.50;54.75;;;;;24.78;53.02;100669.53;5055743;28;45398;-70
2023/06/29 02:33:22;;;;;;;;;66.50;53.75;;;;;24.79;53.01;100673.91;5056746;28;45567;-69
2023/06/29 02:35:47;;;;;;;;;75.00;68.67;;;;;24.72;53.37;100662.88;5039990;28;45917;-71
2023/06/29 02:38:13;;;;;;;;;76.33;69.33;;;;;24.62;53.57;100654.03;5057735;28;45542;-71
2023/06/29 02:40:38;;;;;;;;;77.00;73.00;;;;;24.62;53.50;100652.22;5056749;28;45649;-69
2023/06/29 02:43:03;;;;;;;;;79.33;75.00;;;;;24.65;53.78;100664.50;5059716;28;45402;-67
2023/06/29 02:45:29;;;;;;;;;76.33;72.33;;;;;24.68;53.60;100657.97;5056910;28;45375;-68
2023/06/29 02:47:54;;;;;;;;;92.00;87.00;;;;;24.67;53.58;100662.50;5056404;28;45399;-70
2023/06/29 02:50:20;;;;;;;;;89.67;87.33;;;;;24.73;53.47;100672.66;5055963;28;57466;-70
2023/06/29 02:52:45;;;;;;;;;81.67;76.67;;;;;24.71;53.25;100669.25;5056070;28;45498;-70
2023/06/29 02:55:10;;;;;;;;;52.33;38.33;;;;;24.75;53.16;100669.84;5055346;28;60003;-72
2023/06/29 02:57:36;;;;;;;;;86.33;80.33;;;;;24.62;53.74;100644.13;5038569;28;45605;-68
2023/06/29 03:00:03;;;;;;;;;83.67;78.33;;;;;24.72;53.48;100656.66;5056448;28;46104;-70
2023/06/29 03:02:28;;;;;;;;;76.67;69.00;;;;;24.75;53.42;100662.59;5055604;28;45460;-72
2023/06/29 03:04:54;;;;;;;;;74.00;69.00;;;;;24.71;53.87;100658.50;5057515;28;45287;-70
2023/06/29 03:07:19;;;;;;;;;68.33;57.33;;;;;24.69;53.62;100651.59;5056674;28;45535;-71
2023/06/29 03:09:44;;;;;;;;;72.67;65.67;;;;;24.68;54.04;100657.97;5056668;28;45931;-70
2023/06/29 03:12:10;;;;;;;;;73.00;66.00;;;;;24.64;53.49;100654.72;5057763;28;45240;-70
2023/06/29 03:14:35;;;;;;;;;72.00;62.67;;;;;24.63;54.27;100661.09;5058852;28;45556;-70
2023/06/29 03:17:00;;;;;;;;;69.25;58.75;;;;;24.68;54.22;100657.97;5058669;28;45170;-70
2023/06/29 03:19:26;;;;;;;;;67.00;56.50;;;;;24.64;54.22;100647.53;5057030;28;46261;-71
2023/06/29 03:21:51;;;;;;;;;67.50;57.00;;;;;24.68;54.15;100649.91;5038115;28;45234;-70
2023/06/29 03:24:17;;;;;;;;;66.00;51.50;;;;;24.64;54.37;100655.59;5055062;28;58700;-69
2023/06/29 03:26:42;;;;;;;;;79.33;73.33;;;;;24.69;54.22;100648.91;5057741;28;45375;-70
2023/06/29 03:29:07;;;;;;;;;76.67;72.33;;;;;24.71;54.19;100653.13;5056876;28;45244;-69
2023/06/29 03:31:33;;;;;;;;;72.67;69.00;;;;;24.67;54.35;100658.97;5060394;28;45366;-72
2023/06/29 03:34:00;;;;;;;;;76.33;70.00;;;;;24.61;54.28;100645.13;5041351;28;45442;-69
2023/06/29 03:36:25;;;;;;;;;66.50;54.00;;;;;24.62;54.84;100652.22;5057758;28;45409;-71
2023/06/29 03:38:51;;;;;;;;;60.25;49.25;;;;;24.61;54.46;100655.03;5056840;28;45413;-71
2023/06/29 03:41:16;;;;;;;;;60.75;49.75;;;;;24.68;54.69;100657.97;5056664;28;45383;-69
2023/06/29 03:43:41;;;;;;;;;54.75;45.25;;;;;24.59;54.56;100655.19;5059353;28;45713;-70
2023/06/29 03:46:07;;;;;;;;;56.00;45.75;;;;;24.60;55.25;100658.72;5059541;28;45653;-68
2023/06/29 03:48:32;;;;;;;;;55.75;45.50;;;;;24.55;54.92;100647.56;5061475;28;45967;-71
2023/06/29 03:50:58;;;;;;;;;56.00;46.00;;;;;24.50;55.60;100645.34;5060334;28;45304;-70
2023/06/29 03:53:23;;;;;;;;;58.25;47.25;;;;;24.57;55.17;100651.81;5061338;28;45308;-69
2023/06/29 03:55:49;;;;;;;;;55.25;46.00;;;;;24.57;56.18;100653.66;5058965;28;45231;-70
2023/06/29 03:58:15;;;;;;;;;53.50;45.25;;;;;24.51;56.14;100649.75;5040224;28;45411;-70
2023/06/29 04:00:41;;;;;;;;;54.75;45.00;;;;;24.41;56.73;100633.66;5057534;28;45204;-69
2023/06/29 04:03:06;;;;;;;;;52.50;44.25;;;;;24.48;56.60;100648.19;5059529;28;45281;-68
2023/06/29 04:05:32;;;;;;;;;55.75;45.50;;;;;24.49;56.67;100651.72;5058804;28;45311;-69
2023/06/29 04:07:59;;;;;;;;;55.25;45.25;;;;;24.49;56.59;100649.03;5059294;28;45320;-72
2023/06/29 04:10:24;;;;;;;;;57.50;47.75;;;;;24.44;56.93;100637.91;5057852;28;45611;-69
2023/06/29 04:12:50;;;;;;;;;52.75;44.25;;;;;24.48;56.67;100642.81;5059057;28;45402;-70
2023/06/29 04:15:15;;;;;;;;;47.75;41.00;;;;;24.48;57.27;100641.97;5059382;28;45560;-68
2023/06/29 04:17:41;;;;;;;;;52.00;43.75;;;;;24.47;57.05;100638.44;5058705;28;45330;-68
2023/06/29 04:20:08;;;;;;;;;45.50;39.25;;;;;24.43;58.16;100633.53;5058885;28;45373;-70
2023/06/29 04:22:34;;;;;;;;;44.75;37.25;;;;;24.44;58.04;100632.53;5059746;28;45296;-68
2023/06/29 04:24:59;;;;;;;;;50.00;42.00;;;;;24.43;57.90;100637.03;5039056;28;45255;-70
2023/06/29 04:27:24;;;;;;;;;46.50;40.00;;;;;24.45;58.15;100634.22;5059829;28;45284;-71
2023/06/29 04:29:50;;;;;;;;;47.00;39.75;;;;;24.44;58.72;100630.66;5060787;28;46994;-70
2023/06/29 04:32:15;;;;;;;;;41.50;36.50;;;;;24.38;59.02;100635.78;5059416;28;45305;-71
2023/06/29 04:34:40;;;;;;;;;39.75;34.75;;;;;24.30;59.32;100623.94;5058998;28;45333;-68
2023/06/29 04:37:07;;;;;;;;;42.50;36.25;;;;;24.30;59.74;100632.00;5062397;28;45589;-68
2023/06/29 04:39:32;;;;;;;;;43.25;37.50;;;;;24.29;60.20;100637.56;5058796;28;45340;-68
2023/06/29 04:42:02;;;;;;;;;45.75;37.25;;;;;24.27;60.27;100624.25;5056403;28;45450;-68
2023/06/29 04:44:31;;;;;;;;;45.25;38.75;;;;;24.26;59.90;100621.72;5058150;28;45288;-68
2023/06/29 04:46:59;;;;;;;;;43.25;37.50;;;;;24.26;59.93;100613.66;5056946;28;46075;-68
2023/06/29 04:49:27;;;;;;;;;40.75;36.25;;;;;24.31;60.57;100635.56;5058667;28;45456;-70
2023/06/29 04:51:55;;;;;;;;;33.50;31.00;;;;;24.33;60.63;100629.03;5058550;28;45355;-69
2023/06/29 04:54:21;;;;;;;;;38.25;34.75;;;;;24.20;61.10;100620.47;5058233;28;45225;-68
2023/06/29 04:56:47;;;;;;;;;40.25;36.00;;;;;24.29;61.21;100643.75;5040410;28;45257;-69
2023/06/29 04:59:12;;;;;;;;;37.50;34.00;;;;;24.28;61.06;100636.69;5038626;28;45504;-69
2023/06/29 05:01:37;;;;;;;;;42.25;36.00;;;;;24.18;61.38;100625.16;5063978;28;45783;-70
2023/06/29 05:04:03;;;;;;;;;36.50;33.25;;;;;24.14;61.77;100621.06;5060637;28;45572;-71
2023/06/29 05:06:28;;;;;;;;;38.00;34.00;;;;;24.24;61.36;100632.63;5061502;28;45774;-72
2023/06/29 05:08:54;;;;;;;;;36.75;33.75;;;;;24.30;61.35;100648.13;5041457;28;45544;-69
2023/06/29 05:11:19;;;;;;;;;39.25;35.00;;;;;24.32;61.96;100631.88;5058196;28;45456;-71
2023/06/29 05:13:45;;;;;;;;;38.75;35.00;;;;;24.28;61.31;100635.88;5057644;28;45323;-67
2023/06/29 05:16:10;;;;;;;;;39.75;34.25;;;;;24.27;61.39;100635.00;5057541;28;45635;-69
2023/06/29 05:18:37;;;;;;;;;42.00;36.25;;;;;24.31;61.50;100649.84;5057798;28;45435;-69
2023/06/29 05:21:03;;;;;;;;;34.00;32.25;;;;;24.17;62.30;100627.00;5056666;28;45332;-68
2023/06/29 05:23:29;;;;;;;;;36.25;33.50;;;;;24.32;62.16;100646.16;5055550;28;45628;-69
2023/06/29 05:25:54;;;;;;;;;41.00;35.50;;;;;24.30;62.19;100640.06;5049092;28;46887;-69
2023/06/29 05:28:20;;;;;;;;;39.00;34.50;;;;;24.29;62.46;100643.75;5022859;28;45400;-70
2023/06/29 05:30:45;;;;;;;;;41.00;36.25;;;;;24.30;62.29;100645.44;5032577;28;45257;-71
2023/06/29 05:33:10;;;;;;;;;43.50;37.25;;;;;24.28;62.62;100647.44;5048875;28;45339;-71
2023/06/29 05:35:36;;;;;;;;;39.75;33.75;;;;;24.28;62.72;100636.69;5051323;28;46010;-70
2023/06/29 05:38:02;;;;;;;;;38.50;34.50;;;;;24.30;62.79;100642.75;5021511;28;45540;-69
2023/06/29 05:40:27;;;;;;;;;39.00;33.50;;;;;24.28;62.33;100642.06;5052622;28;45443;-69
2023/06/29 05:42:53;;;;;;;;;40.75;35.75;;;;;24.26;63.26;100635.16;5033036;28;46023;-70
2023/06/29 05:45:18;;;;;;;;;39.75;35.00;;;;;24.20;62.51;100633.91;5047132;28;45536;-70
2023/06/29 05:47:43;;;;;;;;;40.00;35.75;;;;;24.24;62.55;100638.00;5040731;28;45367;-69
2023/06/29 05:50:09;;;;;;;;;43.50;36.00;;;;;24.27;62.21;100639.53;5058263;28;45580;-69
2023/06/29 05:52:34;;;;;;;;;40.75;35.50;;;;;24.30;63.00;100632.00;5059327;28;45497;-71
2023/06/29 05:55:01;;;;;;;;;39.25;33.75;;;;;24.35;62.29;100636.94;5029813;28;46975;-73
2023/06/29 05:57:27;;;;;;;;;37.75;33.25;;;;;24.33;62.65;100639.78;5044491;28;45519;-72
2023/06/29 05:59:53;;;;;;;;;40.50;34.50;;;;;24.41;62.23;100636.34;5040409;28;45339;-71
2023/06/29 06:02:18;;;;;;;;;44.75;35.50;;;;;24.38;62.17;100631.28;5057482;28;45506;-73
2023/06/29 06:04:43;;;;;;;;;35.25;32.50;;;;;24.50;62.65;100634.59;5054408;28;45474;-69
2023/06/29 06:07:10;;;;;;;;;41.00;35.75;;;;;24.61;61.89;100638.91;5037121;28;45923;-68
2023/06/29 06:09:35;;;;;;;;;39.50;34.50;;;;;24.69;61.71;100641.66;5055424;28;45418;-69
2023/06/29 06:12:00;;;;;;;;;39.25;34.50;;;;;24.78;61.47;100643.47;5021582;28;45635;-70
2023/06/29 06:14:26;;;;;;;;;44.00;37.50;;;;;24.59;61.32;100606.81;5054191;28;45257;-69
2023/06/29 06:16:51;;;;;;;;;41.00;34.50;;;;;24.85;61.64;100638.34;5056014;28;45216;-71
2023/06/29 06:19:16;;;;;;;;;39.00;34.25;;;;;24.89;61.65;100631.66;5040020;28;45267;-68
2023/06/29 06:21:42;;;;;;;;;39.75;34.50;;;;;25.07;61.39;100630.78;5055589;28;45562;-68
2023/06/29 06:24:07;;;;;;;;;42.00;36.50;;;;;25.25;60.82;100636.16;5055261;28;45572;-69
2023/06/29 06:26:33;;;;;;;;;43.50;37.50;;;;;25.38;60.13;100641.97;5050955;28;45447;-71
2023/06/29 06:28:58;;;;;;;;;46.25;35.75;;;;;25.47;59.92;100626.75;5047476;28;45718;-68
2023/06/29 06:31:25;;;;;;;;;38.75;33.50;;;;;25.58;59.79;100627.47;5022174;28;45397;-71
2023/06/29 06:33:55;;;;;;;;;40.25;35.25;;;;;25.64;59.43;100616.06;5060576;28;46280;-69
2023/06/29 06:36:22;;;;;;;;;40.00;35.25;;;;;25.91;59.34;100630.34;5052856;28;45261;-68
2023/06/29 06:38:48;;;;;;;;;39.50;34.50;;;;;26.04;59.13;100632.59;5054340;28;45263;-72
2023/06/29 06:41:14;;;;;;;;;39.75;34.75;;;;;26.25;58.30;100646.53;5038368;28;45444;-68
2023/06/29 06:43:39;;;;;;;;;41.75;35.50;;;;;26.26;57.64;100625.78;5053031;28;45535;-71
2023/06/29 06:46:04;;;;;;;;;37.75;34.00;;;;;26.31;57.66;100639.63;5054390;28;54850;-70
2023/06/29 06:48:30;;;;;;;;;38.50;34.25;;;;;26.44;57.38;100632.91;5035867;28;57249;-66
2023/06/29 06:50:55;;;;;;;;;45.75;39.00;;;;;26.61;57.22;100633.78;5052882;28;53351;-67
2023/06/29 06:53:21;;;;;;;;;41.50;35.25;;;;;26.71;56.85;100637.19;5053704;28;49088;-69
2023/06/29 06:55:46;;;;;;;;;40.00;35.00;;;;;26.69;56.28;100626.56;5045656;28;45265;-66
2023/06/29 06:58:11;;;;;;;;;39.75;34.75;;;;;26.71;56.18;100636.34;5050551;28;45323;-69
2023/06/29 07:00:38;;;;;;;;;42.50;36.50;;;;;26.67;56.27;100639.38;5046605;28;45410;-65
2023/06/29 07:03:03;;;;;;;;;42.00;36.50;;;;;26.73;56.39;100634.34;5050541;28;46294;-68
2023/06/29 07:05:29;;;;;;;;;42.25;36.50;;;;;26.64;56.38;100614.56;5056239;28;45383;-70
2023/06/29 07:07:55;;;;;;;;;43.75;37.00;;;;;26.85;55.93;100638.41;5028347;28;45389;-70
2023/06/29 07:10:20;;;;;;;;;38.00;33.75;;;;;26.94;55.17;100633.84;5055415;28;46232;-70
2023/06/29 07:12:46;;;;;;;;;39.00;33.50;;;;;26.91;55.44;100624.25;5052097;28;45414;-69
2023/06/29 07:15:12;;;;;;;;;34.25;31.75;;;;;26.94;55.36;100628.47;5057720;28;45477;-71
2023/06/29 07:17:37;;;;;;;;;40.25;34.50;;;;;26.94;55.32;100636.56;5053576;28;45527;-67
2023/06/29 07:20:06;;;;;;;;;37.75;34.25;;;;;27.00;55.69;100632.34;5056904;28;51860;-70
2023/06/29 07:22:32;;;;;;;;;39.75;34.50;;;;;27.08;55.13;100630.50;5056422;28;46177;-69
2023/06/29 07:24:58;;;;;;;;;42.75;37.50;;;;;27.09;54.67;100639.44;5041030;28;45260;-71
2023/06/29 07:27:23;;;;;;;;;30.25;29.50;;;;;27.16;54.74;100632.34;5052046;28;45246;-70
2023/06/29 07:29:49;;;;;;;;;38.00;34.00;;;;;27.16;54.34;100631.50;5056996;28;45415;-72
2023/06/29 07:32:16;;;;;;;;;41.00;36.00;;;;;27.14;54.40;100625.44;5058536;28;45354;-76
2023/06/29 07:34:41;;;;;;;;;41.00;36.00;;;;;27.18;54.55;100635.72;5056676;28;45234;-72
2023/06/29 07:37:07;;;;;;;;;36.75;32.75;;;;;27.31;54.59;100640.63;5055978;28;45491;-76
2023/06/29 07:39:33;;;;;;;;;41.00;35.50;;;;;27.43;54.39;100624.88;5056632;28;45633;-74
2023/06/29 07:41:58;;;;;;;;;35.25;32.00;;;;;27.55;53.29;100628.94;5037954;28;48402;-76
2023/06/29 07:44:24;;;;;;;;;42.50;37.00;;;;;27.67;52.97;100618.63;5056686;28;45414;-76
2023/06/29 07:46:53;;;;;;;;;38.00;34.50;;;;;27.81;52.49;100619.75;5057171;28;45729;-75
2023/06/29 07:49:18;;;;;;;;;40.00;34.75;;;;;27.89;51.93;100623.44;5057156;28;45409;-77
2023/06/29 07:51:44;;;;;;;;;40.00;35.00;;;;;27.76;52.08;100615.88;5038920;28;45928;-70
2023/06/29 07:54:09;;;;;;;;;37.50;33.50;;;;;27.80;51.52;100622.63;5055828;28;45221;-74
2023/06/29 07:56:34;;;;;;;;;40.50;35.50;;;;;27.87;52.37;100628.19;5038545;28;45381;-76
2023/06/29 07:59:00;;;;;;;;;39.50;34.50;;;;;27.96;51.09;100621.72;5055903;28;45185;-74
2023/06/29 08:01:25;;;;;;;;;40.50;35.00;;;;;28.10;51.27;100625.53;5054963;28;49268;-75
2023/06/29 08:03:51;;;;;;;;;46.25;38.75;;;;;28.15;50.77;100601.56;5056339;28;45243;-73
2023/06/29 08:06:16;;;;;;;;;45.00;37.75;;;;;28.33;50.47;100611.28;5057386;28;45245;-73
2023/06/29 08:08:42;;;;;;;;;41.25;35.75;;;;;28.43;50.08;100612.72;5056587;28;45143;-71
2023/06/29 08:11:11;;;;;;;;;46.50;38.50;;;;;28.50;49.67;100610.16;5055407;28;45253;-72
2023/06/29 08:13:36;;;;;;;;;43.25;36.50;;;;;28.54;50.15;100610.63;5055274;28;45345;-76
2023/06/29 08:16:02;;;;;;;;;41.75;36.50;;;;;28.50;50.04;100601.16;5037497;28;45354;-77
2023/06/29 08:18:27;;;;;;;;;42.25;36.50;;;;;28.73;50.00;100612.00;5055184;28;45323;-75
2023/06/29 08:20:52;;;;;;;;;41.50;36.25;;;;;28.72;49.13;100591.38;5036610;28;47079;-77
2023/06/29 08:23:18;;;;;;;;;45.50;38.50;;;;;28.80;49.17;100593.22;5054716;28;45340;-79
2023/06/29 08:25:44;;;;;;;;;46.00;38.00;;;;;29.09;49.06;100602.44;5054960;28;45378;-76
2023/06/29 08:28:09;;;;;;;;;37.00;33.25;;;;;29.38;48.04;100598.94;5040207;28;45654;-74
2023/06/29 08:30:35;;;;;;;;;38.75;34.00;;;;;29.51;47.48;100606.44;5059323;28;46284;-78
2023/06/29 08:33:00;;;;;;;;;44.50;38.00;;;;;29.48;47.83;100604.09;5058755;28;45278;-75
2023/06/29 08:35:25;;;;;;;;;39.25;35.00;;;;;29.34;47.65;100605.75;5058697;28;45182;-77
2023/06/29 08:37:50;;;;;;;;;41.50;35.50;;;;;29.39;47.59;100597.94;5059314;28;45458;-75
2023/06/29 08:40:22;;;;;;;;;39.25;34.25;;;;;29.41;47.17;100605.88;5040397;28;48193;-80
2023/06/29 08:42:48;;;;;;;;;39.00;33.50;;;;;29.33;47.47;100608.63;5058441;28;45389;-77
2023/06/29 08:45:13;;;;;;;;;36.50;32.00;;;;;29.37;47.24;100612.66;5058770;28;45278;-75
2023/06/29 08:47:41;;;;;;;;;38.50;33.75;;;;;29.35;47.10;100609.28;5040841;28;45246;-74
2023/06/29 08:50:09;;;;;;;;;40.25;34.75;;;;;29.42;47.10;100616.53;5059459;28;45506;-74
2023/06/29 08:52:35;;;;;;;;;40.00;34.00;;;;;29.51;46.48;100616.44;5044223;28;45316;-79
2023/06/29 08:55:02;;;;;;;;;39.50;34.50;;;;;29.55;46.81;100615.06;5041059;28;45292;-77
2023/06/29 08:57:34;;;;;;;;;42.75;35.75;;;;;29.63;46.65;100606.81;5042420;28;45417;-76
2023/06/29 09:00:05;;;;;;;;;48.00;40.50;;;;;29.70;45.96;100607.75;5040373;28;45489;-79
2023/06/29 09:02:32;;;;;;;;;38.50;33.25;;;;;29.85;45.61;100610.47;5058791;28;45321;-81
2023/06/29 09:04:58;;;;;;;;;42.50;35.75;;;;;30.05;45.68;100609.91;5040134;28;45247;-79
2023/06/29 09:07:24;;;;;;;;;44.50;37.50;;;;;30.14;45.46;100607.91;5059388;28;45482;-80
2023/06/29 09:09:49;;;;;;;;;46.50;39.25;;;;;30.46;45.41;100612.03;5061174;28;46990;-76
2023/06/29 09:12:15;;;;;;;;;41.75;36.00;;;;;30.60;44.41;100598.63;5062480;28;45371;-79
2023/06/29 09:14:44;;;;;;;;;42.75;36.75;;;;;30.71;44.49;100597.28;5058776;28;45386;-79
2023/06/29 09:17:17;;;;;;;;;43.00;37.25;;;;;30.95;43.92;100593.31;5061410;28;45257;-79
2023/06/29 09:19:56;;;;;;;;;44.25;38.00;;;;;31.02;43.88;100604.22;5069572;28;45283;-77
2023/06/29 09:22:23;;;;;;;;;39.25;34.50;;;;;31.25;43.54;100595.88;5067759;28;45184;-75
2023/06/29 09:24:49;;;;;;;;;39.00;34.50;;;;;31.45;43.24;100592.44;5061207;28;45299;-79
2023/06/29 09:27:14;;;;;;;;;46.50;39.75;;;;;31.65;42.78;100602.56;5061596;28;45482;-77
2023/06/29 09:29:49;;;;;;;;;41.75;35.50;;;;;31.69;42.43;100590.25;5059560;28;45397;-78
2023/06/29 09:32:16;;;;;;;;;46.50;39.25;;;;;31.81;42.35;100598.72;5042078;28;45540;-77
2023/06/29 09:34:47;;;;;;;;;42.00;35.75;;;;;31.78;41.76;100602.66;5060052;28;45507;-77
2023/06/29 09:37:15;;;;;;;;;38.25;34.00;;;;;31.80;42.07;100599.75;5042737;28;45446;-79
2023/06/29 09:39:56;;;;;;;;;43.00;37.00;;;;;31.84;41.12;100601.91;5040164;28;46352;-76
2023/06/29 09:42:23;;;;;;;;;46.50;39.00;;;;;31.87;41.91;100598.78;5058394;28;45534;-76
2023/06/29 09:44:48;;;;;;;;;43.50;36.50;;;;;31.91;40.87;100607.34;5057906;28;45582;-79
2023/06/29 09:47:14;;;;;;;;;45.25;39.00;;;;;31.78;41.20;100597.22;5058061;28;45466;-75
2023/06/29 09:49:47;;;;;;;;;39.25;34.50;;;;;31.70;41.60;100605.53;5057407;28;45336;-78
2023/06/29 09:52:14;;;;;;;;;44.25;37.00;;;;;31.57;41.39;100607.13;5039824;28;45292;-79
2023/06/29 09:54:39;;;;;;;;;46.50;38.75;;;;;31.62;41.77;100599.22;5041898;28;45315;-73
2023/06/29 09:57:07;;;;;;;;;43.75;37.50;;;;;31.80;41.53;100605.19;5041092;28;45380;-75
2023/06/29 09:59:39;;;;;;;;;59.25;48.00;;;;;31.79;41.52;100593.47;5057522;28;45507;-74
2023/06/29 10:02:08;;;;;;;;;49.00;40.75;;;;;31.80;40.72;100606.03;5058671;28;45276;-75
2023/06/29 10:04:35;;;;;;;;;50.25;41.50;;;;;31.63;40.77;100611.78;5058352;28;45355;-73
2023/06/29 10:07:14;;;;;;;;;46.25;38.25;;;;;31.31;40.90;100603.22;5057747;28;45351;-74
2023/06/29 10:09:42;;;;;;;;;45.25;38.50;;;;;31.31;41.31;100599.69;5058144;28;46694;-75
2023/06/29 10:12:10;;;;;;;;;41.75;36.25;;;;;31.27;40.90;100604.66;5039473;28;45844;-79
2023/06/29 10:14:37;;;;;;;;;43.50;37.00;;;;;31.16;40.86;100602.47;5058556;28;45447;-78
2023/06/29 10:17:08;;;;;;;;;40.00;34.25;;;;;30.98;40.81;100603.78;5058989;28;45585;-76
2023/06/29 10:19:39;;;;;;;;;42.75;35.75;;;;;30.80;41.03;100606.16;5058459;28;46547;-78
2023/06/29 10:22:09;;;;;;;;;39.50;34.50;;;;;30.83;41.46;100613.91;5059739;28;45468;-72
2023/06/29 10:24:43;;;;;;;;;40.25;34.75;;;;;30.82;41.08;100606.78;5059248;28;45366;-76
2023/06/29 10:27:10;;;;;;;;;42.50;35.50;;;;;30.80;40.79;100603.44;5057239;28;45348;-74
2023/06/29 10:29:46;;;;;;;;;35.25;32.00;;;;;30.88;41.13;100614.16;5039068;28;45403;-76
2023/06/29 10:32:30;;;;;;;;;37.00;33.25;;;;;30.81;41.36;100607.81;5039536;28;45745;-77
2023/06/29 10:35:02;;;;;;;;;45.25;38.75;;;;;30.77;41.76;100609.25;5058276;28;45277;-73
2023/06/29 10:37:32;;;;;;;;;44.00;37.75;;;;;31.01;41.47;100614.25;5057088;28;45490;-72
2023/06/29 10:39:58;;;;;;;;;44.75;37.50;;;;;31.24;40.75;100602.34;5058050;28;47145;-71
2023/06/29 10:42:23;;;;;;;;;43.00;36.50;;;;;31.16;40.73;100607.88;5057732;28;45660;-73
2023/06/29 10:44:49;;;;;;;;;44.00;37.25;;;;;31.03;40.98;100609.47;5057193;28;45528;-75
2023/06/29 10:47:28;;;;;;;;;35.00;31.25;;;;;30.90;41.04;100609.38;5057683;28;45318;-79
2023/06/29 10:50:25;;;;;;;;;37.75;34.25;;;;;30.79;41.18;100602.56;5038545;28;48742;-75
2023/06/29 10:52:50;;;;;;;;;38.00;33.50;;;;;30.54;41.02;100597.50;5049750;28;45186;-77
2023/06/29 10:55:23;;;;;;;;;35.25;32.00;;;;;30.37;40.99;100596.91;5056767;28;45177;-77
2023/06/29 10:57:53;;;;;;;;;41.00;35.50;;;;;30.44;41.33;100591.56;5056976;28;45328;-77
2023/06/29 11:00:19;;;;;;;;;36.00;33.25;;;;;30.54;41.26;100573.09;5039630;28;47724;-76
2023/06/29 11:02:47;;;;;;;;;34.50;32.00;;;;;30.93;40.77;100587.25;5059554;28;45483;-78
2023/06/29 11:05:14;;;;;;;;;42.50;35.50;;;;;31.12;40.72;100572.13;5058587;28;45394;-76
2023/06/29 11:07:41;;;;;;;;;44.25;38.00;;;;;31.56;40.43;100588.31;5058400;28;45226;-74